createdAt,value
2017-04-30T00:07:08.606Z,6.81
2017-04-30T00:10:02.231Z,6.74
2017-04-30T00:12:55.998Z,6.74
2017-04-30T00:15:49.788Z,6.74
2017-04-30T00:18:43.185Z,6.74
2017-04-30T00:21:36.758Z,6.70
2017-04-30T00:24:30.466Z,6.66
2017-04-30T00:27:24.069Z,6.63
2017-04-30T00:33:11.332Z,6.55
2017-04-30T00:36:04.939Z,6.49
2017-04-30T00:38:58.522Z,6.48
2017-04-30T00:41:52.293Z,6.43
2017-04-30T00:44:45.888Z,6.47
2017-04-30T00:47:39.487Z,6.48
2017-04-30T00:50:33.456Z,6.42
2017-04-30T00:53:27.144Z,6.42
2017-04-30T00:56:20.788Z,6.37
2017-04-30T00:59:14.251Z,6.28
2017-04-30T01:05:01.651Z,6.25
2017-04-30T01:10:48.911Z,6.22
2017-04-30T01:13:42.564Z,6.25
2017-04-30T01:16:36.231Z,6.25
2017-04-30T01:19:29.945Z,6.25
2017-04-30T01:22:23.675Z,6.14
2017-04-30T01:25:17.297Z,6.11
2017-04-30T01:28:10.991Z,6.08
2017-04-30T01:31:04.557Z,6.08
2017-04-30T01:33:58.263Z,6.08
2017-04-30T01:36:51.815Z,6.06
2017-04-30T01:42:39.165Z,6.01
2017-04-30T01:45:32.881Z,5.94
2017-04-30T01:54:14.390Z,5.88
2017-04-30T01:57:08.123Z,5.87
2017-04-30T02:00:01.691Z,5.84
2017-04-30T02:02:55.176Z,5.84
2017-04-30T02:05:48.876Z,5.85
2017-04-30T02:08:42.911Z,5.87
2017-04-30T02:11:36.334Z,5.87
2017-04-30T02:17:23.723Z,5.82
2017-04-30T02:20:17.442Z,5.80
2017-04-30T02:23:11.052Z,5.79
2017-04-30T02:26:05.864Z,5.80
2017-04-30T02:31:52.297Z,5.81
2017-04-30T02:34:46.023Z,5.82
2017-04-30T02:37:39.667Z,5.80
2017-04-30T02:40:33.389Z,5.70
2017-04-30T02:43:27.044Z,5.67
2017-04-30T02:46:21.266Z,5.62
2017-04-30T02:49:14.983Z,5.63
2017-04-30T02:57:56.132Z,5.61
2017-04-30T03:03:43.525Z,5.60
2017-04-30T03:06:37.125Z,5.58
2017-04-30T03:09:30.813Z,5.57
2017-04-30T03:12:24.537Z,5.58
2017-04-30T03:21:05.317Z,5.50
2017-04-30T03:23:59.015Z,5.47
2017-04-30T03:29:46.327Z,5.44
2017-04-30T03:32:39.869Z,5.41
2017-04-30T03:38:26.946Z,5.44
2017-04-30T03:44:14.617Z,5.46
2017-04-30T03:47:08.109Z,5.48
2017-04-30T03:50:01.763Z,5.50
2017-04-30T03:55:48.925Z,5.38
2017-04-30T03:58:42.614Z,5.38
2017-04-30T04:01:36.151Z,5.43
2017-04-30T04:04:29.752Z,5.47
2017-04-30T04:07:23.361Z,5.54
2017-04-30T04:10:16.888Z,5.60
2017-04-30T04:13:10.515Z,5.66
2017-04-30T04:16:04.213Z,5.70
2017-04-30T04:18:58.049Z,5.76
2017-04-30T04:21:51.834Z,5.80
2017-04-30T04:27:39.078Z,5.84
2017-04-30T04:30:32.713Z,5.91
2017-04-30T04:36:20.086Z,6.00
2017-04-30T04:39:13.663Z,6.06
2017-04-30T04:42:07.454Z,6.12
2017-04-30T04:45:01.103Z,6.16
2017-04-30T04:47:54.968Z,6.22
2017-04-30T04:50:48.514Z,6.30
2017-04-30T04:53:42.785Z,6.37
2017-04-30T04:56:36.539Z,6.44
2017-04-30T04:59:30.281Z,6.45
2017-04-30T05:02:23.924Z,6.52
2017-04-30T05:05:17.633Z,6.59
2017-04-30T05:11:05.148Z,6.63
2017-04-30T05:13:58.918Z,6.71
2017-04-30T05:16:52.603Z,6.74
2017-04-30T05:19:46.322Z,6.83
2017-04-30T05:22:40.015Z,6.95
2017-04-30T05:25:33.747Z,7.10
2017-04-30T05:28:27.491Z,7.25
2017-04-30T05:31:21.369Z,7.48
2017-04-30T05:34:15.173Z,7.82
2017-04-30T05:40:03.259Z,8.61
2017-04-30T05:42:57.386Z,9.03
2017-04-30T05:45:51.555Z,9.47
2017-04-30T05:48:45.804Z,9.91
2017-04-30T05:51:40.285Z,10.54
2017-04-30T05:54:34.857Z,12.24
2017-04-30T05:57:29.452Z,15.74
2017-04-30T06:00:23.966Z,18.67
2017-04-30T06:03:18.504Z,20.07
2017-04-30T06:06:13.485Z,20.86
2017-04-30T06:09:08.196Z,21.08
2017-04-30T06:12:02.888Z,20.84
2017-04-30T06:14:57.586Z,19.90
2017-04-30T06:17:52.139Z,19.22
2017-04-30T06:20:46.610Z,18.42
2017-04-30T06:23:41.158Z,18.02
2017-04-30T06:26:35.612Z,17.79
2017-04-30T06:29:30.062Z,17.48
2017-04-30T06:32:24.423Z,16.97
2017-04-30T06:35:18.622Z,16.45
2017-04-30T06:38:13.047Z,16.48
2017-04-30T06:41:07.652Z,16.74
2017-04-30T06:44:02.021Z,16.86
2017-04-30T06:46:56.369Z,17.12
2017-04-30T06:49:51.045Z,17.39
2017-04-30T06:52:45.690Z,17.47
2017-04-30T06:55:40.187Z,17.79
2017-04-30T06:58:34.771Z,17.83
2017-04-30T07:01:29.379Z,17.62
2017-04-30T07:04:24.034Z,17.79
2017-04-30T07:07:18.701Z,17.90
2017-04-30T07:10:13.404Z,18.11
2017-04-30T07:13:08.123Z,18.35
2017-04-30T07:16:02.838Z,18.50
2017-04-30T07:18:57.322Z,18.63
2017-04-30T07:21:52.034Z,18.71
2017-04-30T07:24:46.517Z,18.58
2017-04-30T07:27:41.092Z,18.74
2017-04-30T07:30:35.439Z,18.67
2017-04-30T07:33:29.969Z,18.51
2017-04-30T07:36:24.303Z,18.42
2017-04-30T07:39:18.865Z,18.72
2017-04-30T07:42:13.327Z,19.19
2017-04-30T07:45:08.034Z,19.31
2017-04-30T07:48:02.701Z,19.59
2017-04-30T07:50:57.171Z,19.68
2017-04-30T07:53:51.464Z,19.80
2017-04-30T07:56:45.699Z,20.09
2017-04-30T08:02:33.737Z,20.33
2017-04-30T08:05:27.914Z,20.13
2017-04-30T08:08:21.762Z,19.69
2017-04-30T08:11:15.664Z,20.14
2017-04-30T08:14:09.771Z,20.34
2017-04-30T08:17:03.852Z,20.63
2017-04-30T08:19:58.038Z,20.87
2017-04-30T08:22:52.209Z,20.99
2017-04-30T08:25:46.322Z,21.24
2017-04-30T08:31:34.953Z,21.94
2017-04-30T08:37:23.698Z,22.52
2017-04-30T08:40:18.171Z,22.72
2017-04-30T08:43:12.545Z,23.13
2017-04-30T08:46:06.625Z,23.06
2017-04-30T08:49:00.408Z,22.77
2017-04-30T08:51:53.988Z,21.92
2017-04-30T08:54:47.316Z,21.82
2017-04-30T08:57:40.747Z,21.81
2017-04-30T09:00:34.128Z,22.35
2017-04-30T09:03:28.154Z,22.69
2017-04-30T09:12:10.317Z,23.92
2017-04-30T09:15:04.174Z,22.74
2017-04-30T09:17:58.072Z,22.19
2017-04-30T09:20:51.696Z,21.52
2017-04-30T09:23:45.849Z,20.93
2017-04-30T09:26:40.137Z,20.48
2017-04-30T09:29:34.358Z,19.90
2017-04-30T09:32:28.603Z,19.04
2017-04-30T09:35:22.871Z,18.59
2017-04-30T09:38:17.095Z,18.75
2017-04-30T09:41:11.727Z,19.21
2017-04-30T09:44:06.208Z,19.60
2017-04-30T09:47:00.909Z,19.84
2017-04-30T09:49:55.654Z,19.90
2017-04-30T09:52:50.197Z,19.81
2017-04-30T09:55:44.722Z,18.82
2017-04-30T09:58:39.155Z,18.62
2017-04-30T10:01:33.720Z,19.01
2017-04-30T10:04:28.384Z,19.50
2017-04-30T10:07:22.951Z,19.66
2017-04-30T10:10:17.538Z,19.60
2017-04-30T10:13:12.041Z,19.43
2017-04-30T10:16:06.461Z,18.80
2017-04-30T10:19:01.088Z,18.92
2017-04-30T10:21:55.642Z,18.88
2017-04-30T10:24:50.119Z,18.41
2017-04-30T10:27:44.649Z,18.07
2017-04-30T10:30:39.191Z,18.05
2017-04-30T10:33:33.475Z,17.90
2017-04-30T10:36:27.915Z,17.82
2017-04-30T10:39:22.443Z,17.67
2017-04-30T10:42:16.807Z,17.42
2017-04-30T10:45:11.325Z,17.21
2017-04-30T10:48:05.701Z,17.12
2017-04-30T10:50:59.969Z,16.89
2017-04-30T10:53:54.428Z,16.84
2017-04-30T10:56:48.863Z,16.80
2017-04-30T10:59:43.314Z,16.65
2017-04-30T11:02:37.683Z,16.39
2017-04-30T11:05:32.082Z,15.92
2017-04-30T11:08:26.338Z,15.56
2017-04-30T11:11:20.508Z,15.40
2017-04-30T11:14:14.868Z,15.28
2017-04-30T11:17:09.150Z,15.13
2017-04-30T11:20:03.421Z,14.89
2017-04-30T11:22:57.735Z,14.82
2017-04-30T11:25:52.110Z,14.63
2017-04-30T11:28:46.339Z,14.32
2017-04-30T11:31:40.578Z,14.21
2017-04-30T11:34:34.775Z,14.26
2017-04-30T11:37:28.962Z,14.31
2017-04-30T11:40:23.300Z,14.22
2017-04-30T11:43:17.589Z,14.24
2017-04-30T11:46:11.813Z,14.29
2017-04-30T11:49:06.182Z,14.27
2017-04-30T11:52:00.467Z,14.22
2017-04-30T11:54:54.924Z,14.20
2017-04-30T11:57:49.224Z,14.20
2017-04-30T12:00:43.636Z,14.17
2017-04-30T12:03:37.936Z,14.16
2017-04-30T12:06:32.240Z,14.02
2017-04-30T12:09:26.558Z,13.97
2017-04-30T12:12:20.887Z,13.98
2017-04-30T12:15:15.180Z,13.97
2017-04-30T12:18:09.398Z,14.02
2017-04-30T12:21:03.613Z,14.07
2017-04-30T12:23:57.715Z,13.98
2017-04-30T12:26:51.900Z,13.97
2017-04-30T12:29:46.152Z,13.96
2017-04-30T12:32:40.379Z,13.94
2017-04-30T12:35:34.538Z,13.91
2017-04-30T12:38:28.733Z,13.93
2017-04-30T12:41:23.116Z,13.99
2017-04-30T12:50:06.109Z,14.11
2017-04-30T12:53:00.456Z,14.15
2017-04-30T12:55:54.776Z,14.16
2017-04-30T12:58:49.056Z,14.22
2017-04-30T13:04:37.629Z,14.32
2017-04-30T13:07:31.821Z,14.31
2017-04-30T13:10:26.212Z,14.35
2017-04-30T13:13:20.599Z,14.44
2017-04-30T13:16:15.018Z,14.46
2017-04-30T13:19:09.569Z,14.46
2017-04-30T13:22:04.007Z,14.50
2017-04-30T13:24:58.455Z,14.53
2017-04-30T13:27:52.913Z,14.55
2017-04-30T13:30:47.346Z,14.54
2017-04-30T13:33:41.752Z,14.56
2017-04-30T13:36:36.266Z,14.58
2017-04-30T13:39:30.781Z,14.62
2017-04-30T13:42:25.245Z,14.57
2017-04-30T13:45:19.731Z,14.50
2017-04-30T13:48:14.175Z,14.51
2017-04-30T13:51:08.663Z,14.48
2017-04-30T13:54:03.119Z,14.42
2017-04-30T13:56:57.600Z,14.42
2017-04-30T13:59:52.021Z,14.45
2017-04-30T14:02:46.427Z,14.48
2017-04-30T14:05:40.913Z,14.46
2017-04-30T14:08:35.369Z,14.45
2017-04-30T14:11:29.927Z,14.41
2017-04-30T14:17:18.920Z,14.35
2017-04-30T14:20:13.449Z,14.41
2017-04-30T14:23:07.841Z,14.44
2017-04-30T14:26:02.236Z,14.40
2017-04-30T14:28:56.682Z,14.41
2017-04-30T14:31:51.731Z,14.38
2017-04-30T14:34:46.129Z,14.34
2017-04-30T14:37:40.625Z,14.34
2017-04-30T14:40:35.197Z,14.37
2017-04-30T14:43:29.724Z,14.35
2017-04-30T14:49:18.711Z,14.33
2017-04-30T14:52:13.154Z,14.30
2017-04-30T14:55:07.433Z,14.29
2017-04-30T14:58:01.878Z,14.27
2017-04-30T15:00:56.268Z,14.18
2017-04-30T15:03:50.652Z,14.14
2017-04-30T15:06:45.108Z,14.14
2017-04-30T15:09:39.568Z,14.20
2017-04-30T15:12:34.080Z,14.20
2017-04-30T15:15:28.534Z,14.20
2017-04-30T15:18:23.002Z,14.19
2017-04-30T15:21:17.357Z,14.19
2017-04-30T15:24:11.877Z,14.21
2017-04-30T15:27:06.297Z,14.24
2017-04-30T15:30:00.846Z,14.32
2017-04-30T15:32:55.261Z,14.30
2017-04-30T15:35:49.621Z,14.20
2017-04-30T15:38:44.221Z,14.06
2017-04-30T15:41:38.668Z,13.89
2017-04-30T15:44:33.058Z,13.77
2017-04-30T15:47:27.467Z,13.68
2017-04-30T15:50:21.890Z,13.65
2017-04-30T15:53:16.433Z,13.64
2017-04-30T15:56:10.687Z,13.63
2017-04-30T15:59:05.360Z,13.62
2017-04-30T16:01:59.709Z,13.59
2017-04-30T16:04:54.134Z,13.58
2017-04-30T16:07:48.429Z,13.55
2017-04-30T16:10:42.806Z,13.50
2017-04-30T16:13:37.241Z,13.41
2017-04-30T16:16:31.783Z,13.37
2017-04-30T16:19:26.179Z,13.35
2017-04-30T16:22:20.604Z,13.34
2017-04-30T16:25:14.991Z,13.34
2017-04-30T16:28:09.313Z,13.35
2017-04-30T16:31:03.671Z,13.36
2017-04-30T16:33:58.096Z,13.35
2017-04-30T16:36:52.497Z,13.34
2017-04-30T16:39:46.897Z,13.34
2017-04-30T16:42:41.205Z,13.32
2017-04-30T16:45:35.725Z,13.31
2017-04-30T16:48:30.108Z,13.30
2017-04-30T16:51:24.556Z,13.29
2017-04-30T16:54:18.918Z,13.28
2017-04-30T16:57:13.259Z,13.24
2017-04-30T17:00:07.695Z,13.21
2017-04-30T17:03:02.142Z,13.17
2017-04-30T17:05:56.483Z,13.13
2017-04-30T17:08:50.907Z,13.09
2017-04-30T17:11:45.245Z,13.04
2017-04-30T17:14:39.737Z,13.01
2017-04-30T17:17:34.032Z,12.99
2017-04-30T17:23:23.073Z,12.96
2017-04-30T17:26:17.382Z,12.94
2017-04-30T17:29:11.789Z,12.92
2017-04-30T17:32:06.144Z,12.88
2017-04-30T17:35:00.651Z,12.84
2017-04-30T17:37:55.358Z,12.75
2017-04-30T17:40:49.708Z,12.70
2017-04-30T17:43:44.131Z,12.64
2017-04-30T17:46:38.559Z,12.58
2017-04-30T17:49:32.902Z,12.52
2017-04-30T17:52:27.736Z,12.47
2017-04-30T17:55:22.142Z,12.42
2017-04-30T18:01:11.103Z,12.29
2017-04-30T18:04:05.547Z,12.24
2017-04-30T18:07:00.034Z,12.18
2017-04-30T18:09:54.430Z,12.13
2017-04-30T18:12:48.817Z,12.07
2017-04-30T18:15:43.251Z,12.04
2017-04-30T18:18:37.539Z,12.00
2017-04-30T18:24:26.320Z,11.87
2017-04-30T18:27:20.797Z,11.81
2017-04-30T18:30:15.222Z,11.74
2017-04-30T18:33:09.558Z,11.69
2017-04-30T18:36:03.898Z,11.64
2017-04-30T18:38:58.272Z,11.59
2017-04-30T18:41:52.584Z,11.54
2017-04-30T18:44:46.850Z,11.51
2017-04-30T18:47:41.080Z,11.47
2017-04-30T18:53:29.732Z,11.41
2017-04-30T18:56:24.142Z,11.37
2017-04-30T18:59:18.550Z,11.34
2017-04-30T19:02:13.118Z,11.30
2017-04-30T19:05:07.451Z,11.27
2017-04-30T19:08:01.873Z,11.25
2017-04-30T19:10:56.301Z,11.21
2017-04-30T19:16:45.018Z,11.13
2017-04-30T19:19:39.508Z,11.10
2017-04-30T19:22:33.785Z,11.06
2017-04-30T19:25:28.165Z,11.02
2017-04-30T19:31:16.757Z,10.93
2017-04-30T19:34:11.072Z,10.86
2017-04-30T19:37:05.454Z,10.83
2017-04-30T19:39:59.779Z,10.80
2017-04-30T19:42:54.155Z,10.77
2017-04-30T19:45:48.530Z,10.73
2017-04-30T19:48:42.905Z,10.70
2017-04-30T19:51:37.311Z,10.67
2017-04-30T19:54:31.686Z,10.65
2017-04-30T19:57:26.005Z,10.63
2017-04-30T20:00:20.389Z,10.61
2017-04-30T20:06:09.181Z,10.52
2017-04-30T20:09:03.423Z,10.48
2017-04-30T20:14:52.045Z,10.42
2017-04-30T20:17:46.272Z,10.36
2017-04-30T20:20:40.656Z,10.32
2017-04-30T20:23:34.850Z,10.29
2017-04-30T20:26:29.183Z,10.25
2017-04-30T20:32:17.688Z,10.20
2017-04-30T20:35:11.934Z,10.16
2017-04-30T20:38:06.117Z,10.14
2017-04-30T20:41:00.345Z,10.11
2017-04-30T20:43:54.664Z,10.09
2017-04-30T20:46:48.904Z,10.06
2017-04-30T20:49:43.108Z,10.03
2017-04-30T20:52:37.358Z,9.99
2017-04-30T20:55:31.579Z,9.95
2017-04-30T20:58:25.818Z,9.92
2017-04-30T21:01:20.087Z,9.89
2017-04-30T21:04:14.355Z,9.86
2017-04-30T21:07:08.633Z,9.83
2017-04-30T21:10:02.890Z,9.80
2017-04-30T21:12:57.270Z,9.77
2017-04-30T21:15:51.486Z,9.77
2017-04-30T21:18:45.798Z,9.76
2017-04-30T21:21:40.071Z,9.72
2017-04-30T21:24:34.341Z,9.70
2017-04-30T21:30:22.819Z,9.65
2017-04-30T21:36:11.323Z,9.55
2017-04-30T21:41:59.828Z,9.47
2017-04-30T21:44:53.989Z,9.44
2017-04-30T21:47:48.483Z,9.40
2017-04-30T21:50:42.606Z,9.35
2017-04-30T21:53:36.872Z,9.33
2017-04-30T21:56:31.110Z,9.28
2017-04-30T21:59:25.254Z,9.24
2017-04-30T22:08:07.957Z,9.14
2017-04-30T22:11:01.944Z,9.11
2017-04-30T22:13:57.151Z,9.08
2017-04-30T22:16:50.548Z,9.06
2017-04-30T22:19:44.738Z,9.04
2017-04-30T22:22:38.894Z,9.01
2017-04-30T22:28:27.297Z,8.98
2017-04-30T22:31:21.456Z,8.95
2017-04-30T22:34:15.709Z,8.91
2017-04-30T22:37:09.922Z,8.86
2017-04-30T22:40:04.118Z,8.82
2017-04-30T22:42:58.327Z,8.78
2017-04-30T22:45:52.515Z,8.75
2017-04-30T22:48:46.757Z,8.72
2017-04-30T22:51:41.081Z,8.69
2017-04-30T22:54:35.310Z,8.66
2017-04-30T22:57:29.627Z,8.61
2017-04-30T23:00:23.798Z,8.59
2017-04-30T23:03:18.052Z,8.59
2017-04-30T23:06:12.295Z,8.58
2017-04-30T23:09:06.584Z,8.57
2017-04-30T23:12:00.865Z,8.54
2017-04-30T23:14:55.205Z,8.49
2017-04-30T23:17:49.321Z,8.47
2017-04-30T23:20:43.608Z,8.44
2017-04-30T23:23:37.929Z,8.42
2017-04-30T23:29:26.433Z,8.32
2017-04-30T23:32:20.547Z,8.27
2017-04-30T23:38:09.072Z,8.24
2017-04-30T23:41:03.289Z,8.22
2017-04-30T23:43:57.530Z,8.19
2017-04-30T23:46:51.719Z,8.16
2017-04-30T23:49:45.914Z,8.12
2017-04-30T23:52:40.027Z,8.07
2017-04-30T23:58:28.604Z,7.99
